sensor_id;sensor_type;location;lat;lon;timestamp;P1;durP1;ratioP1;P2;durP2;ratioP2
70369;SDS011;57790;51.356;-2.906;2023-02-05T00:01:17;9.50;;;1.80;;
70369;SDS011;57790;51.356;-2.906;2023-02-05T00:04:18;8.73;;;1.30;;
70369;SDS011;57790;51.356;-2.906;2023-02-05T00:07:18;8.30;;;1.13;;
70369;SDS011;57790;51.356;-2.906;2023-02-05T00:10:19;8.20;;;1.40;;
70369;SDS011;57790;51.356;-2.906;2023-02-05T00:13:19;10.75;;;1.58;;
70369;SDS011;57790;51.356;-2.906;2023-02-05T00:16:20;6.57;;;1.23;;
70369;SDS011;57790;51.356;-2.906;2023-02-05T00:19:22;7.03;;;1.45;;
70369;SDS011;57790;51.356;-2.906;2023-02-05T00:22:22;11.07;;;1.63;;
70369;SDS011;57790;51.356;-2.906;2023-02-05T00:25:23;6.77;;;1.60;;
70369;SDS011;57790;51.356;-2.906;2023-02-05T00:28:23;8.70;;;1.40;;
70369;SDS011;57790;51.356;-2.906;2023-02-05T00:31:24;7.90;;;1.38;;
70369;SDS011;57790;51.356;-2.906;2023-02-05T00:34:25;7.07;;;1.53;;
70369;SDS011;57790;51.356;-2.906;2023-02-05T00:37:25;10.40;;;1.80;;
70369;SDS011;57790;51.356;-2.906;2023-02-05T00:40:25;9.82;;;1.83;;
70369;SDS011;57790;51.356;-2.906;2023-02-05T00:43:26;9.03;;;1.70;;
70369;SDS011;57790;51.356;-2.906;2023-02-05T00:46:27;13.63;;;2.27;;
70369;SDS011;57790;51.356;-2.906;2023-02-05T00:49:27;11.80;;;2.13;;
70369;SDS011;57790;51.356;-2.906;2023-02-05T00:52:28;10.93;;;1.70;;
70369;SDS011;57790;51.356;-2.906;2023-02-05T00:55:28;11.23;;;2.40;;
70369;SDS011;57790;51.356;-2.906;2023-02-05T00:58:29;11.00;;;3.10;;
70369;SDS011;57790;51.356;-2.906;2023-02-05T01:01:29;11.10;;;2.77;;
70369;SDS011;57790;51.356;-2.906;2023-02-05T01:04:30;12.03;;;2.80;;
70369;SDS011;57790;51.356;-2.906;2023-02-05T01:07:30;9.13;;;2.47;;
70369;SDS011;57790;51.356;-2.906;2023-02-05T01:10:31;9.68;;;2.50;;
70369;SDS011;57790;51.356;-2.906;2023-02-05T01:13:31;10.47;;;2.00;;
70369;SDS011;57790;51.356;-2.906;2023-02-05T01:16:32;8.90;;;1.93;;
70369;SDS011;57790;51.356;-2.906;2023-02-05T01:19:33;11.80;;;1.63;;
70369;SDS011;57790;51.356;-2.906;2023-02-05T01:22:34;7.55;;;1.60;;
70369;SDS011;57790;51.356;-2.906;2023-02-05T01:25:34;6.63;;;1.50;;
70369;SDS011;57790;51.356;-2.906;2023-02-05T01:28:35;8.50;;;1.50;;
70369;SDS011;57790;51.356;-2.906;2023-02-05T01:31:35;8.83;;;1.30;;
70369;SDS011;57790;51.356;-2.906;2023-02-05T01:34:35;7.10;;;1.40;;
70369;SDS011;57790;51.356;-2.906;2023-02-05T01:37:36;6.33;;;1.20;;
70369;SDS011;57790;51.356;-2.906;2023-02-05T01:40:36;7.60;;;1.30;;
70369;SDS011;57790;51.356;-2.906;2023-02-05T01:43:37;9.00;;;1.27;;
70369;SDS011;57790;51.356;-2.906;2023-02-05T01:46:39;6.10;;;1.00;;
70369;SDS011;57790;51.356;-2.906;2023-02-05T01:49:43;8.05;;;1.17;;
70369;SDS011;57790;51.356;-2.906;2023-02-05T01:52:45;7.18;;;1.08;;
70369;SDS011;57790;51.356;-2.906;2023-02-05T01:55:56;6.00;;;1.00;;
70369;SDS011;57790;51.356;-2.906;2023-02-05T01:59:18;5.57;;;0.75;;
70369;SDS011;57790;51.356;-2.906;2023-02-05T02:02:25;7.63;;;0.85;;
70369;SDS011;57790;51.356;-2.906;2023-02-05T02:05:26;7.53;;;1.07;;
70369;SDS011;57790;51.356;-2.906;2023-02-05T02:08:26;5.83;;;1.00;;
70369;SDS011;57790;51.356;-2.906;2023-02-05T02:11:27;8.40;;;0.87;;
70369;SDS011;57790;51.356;-2.906;2023-02-05T02:14:32;8.02;;;1.08;;
70369;SDS011;57790;51.356;-2.906;2023-02-05T02:17:34;8.23;;;0.75;;
70369;SDS011;57790;51.356;-2.906;2023-02-05T02:20:39;4.78;;;0.80;;
70369;SDS011;57790;51.356;-2.906;2023-02-05T02:33:52;6.72;;;1.05;;
70369;SDS011;57790;51.356;-2.906;2023-02-05T02:37:08;8.25;;;1.17;;
70369;SDS011;57790;51.356;-2.906;2023-02-05T02:40:24;7.57;;;0.90;;
70369;SDS011;57790;51.356;-2.906;2023-02-05T02:43:33;5.80;;;0.70;;
70369;SDS011;57790;51.356;-2.906;2023-02-05T02:46:40;6.63;;;0.95;;
70369;SDS011;57790;51.356;-2.906;2023-02-05T02:49:49;8.05;;;0.80;;
70369;SDS011;57790;51.356;-2.906;2023-02-05T02:52:55;8.35;;;1.00;;
70369;SDS011;57790;51.356;-2.906;2023-02-05T02:55:56;6.00;;;0.73;;
70369;SDS011;57790;51.356;-2.906;2023-02-05T02:59:02;9.43;;;0.70;;
70369;SDS011;57790;51.356;-2.906;2023-02-05T03:02:05;6.82;;;0.70;;
70369;SDS011;57790;51.356;-2.906;2023-02-05T03:05:13;6.60;;;0.80;;
70369;SDS011;57790;51.356;-2.906;2023-02-05T03:11:29;8.40;;;0.90;;
70369;SDS011;57790;51.356;-2.906;2023-02-05T03:14:30;8.43;;;0.87;;
70369;SDS011;57790;51.356;-2.906;2023-02-05T03:17:30;8.80;;;0.90;;
70369;SDS011;57790;51.356;-2.906;2023-02-05T03:20:44;8.87;;;0.90;;
70369;SDS011;57790;51.356;-2.906;2023-02-05T03:23:50;6.13;;;0.90;;
70369;SDS011;57790;51.356;-2.906;2023-02-05T03:26:50;6.97;;;1.05;;
70369;SDS011;57790;51.356;-2.906;2023-02-05T03:29:51;6.17;;;0.93;;
70369;SDS011;57790;51.356;-2.906;2023-02-05T03:39:47;5.50;;;0.85;;
70369;SDS011;57790;51.356;-2.906;2023-02-05T03:43:54;11.13;;;1.10;;
70369;SDS011;57790;51.356;-2.906;2023-02-05T03:46:58;6.63;;;1.10;;
70369;SDS011;57790;51.356;-2.906;2023-02-05T03:50:12;7.95;;;0.77;;
70369;SDS011;57790;51.356;-2.906;2023-02-05T03:56:45;5.53;;;0.77;;
70369;SDS011;57790;51.356;-2.906;2023-02-05T03:59:58;6.80;;;0.70;;
70369;SDS011;57790;51.356;-2.906;2023-02-05T04:02:59;6.47;;;0.73;;
70369;SDS011;57790;51.356;-2.906;2023-02-05T04:06:00;6.95;;;1.13;;
70369;SDS011;57790;51.356;-2.906;2023-02-05T04:09:00;8.90;;;0.90;;
70369;SDS011;57790;51.356;-2.906;2023-02-05T04:12:01;7.07;;;0.70;;
70369;SDS011;57790;51.356;-2.906;2023-02-05T04:15:01;9.50;;;0.83;;
70369;SDS011;57790;51.356;-2.906;2023-02-05T04:18:02;6.53;;;0.80;;
70369;SDS011;57790;51.356;-2.906;2023-02-05T04:21:03;7.80;;;1.20;;
70369;SDS011;57790;51.356;-2.906;2023-02-05T04:24:03;5.40;;;0.70;;
70369;SDS011;57790;51.356;-2.906;2023-02-05T04:27:04;7.80;;;0.87;;
70369;SDS011;57790;51.356;-2.906;2023-02-05T04:30:05;5.47;;;0.50;;
70369;SDS011;57790;51.356;-2.906;2023-02-05T04:33:05;4.73;;;0.67;;
70369;SDS011;57790;51.356;-2.906;2023-02-05T04:36:06;8.80;;;1.10;;
70369;SDS011;57790;51.356;-2.906;2023-02-05T04:39:07;6.50;;;0.73;;
70369;SDS011;57790;51.356;-2.906;2023-02-05T04:42:07;6.13;;;0.80;;
70369;SDS011;57790;51.356;-2.906;2023-02-05T04:45:07;7.93;;;0.73;;
70369;SDS011;57790;51.356;-2.906;2023-02-05T04:48:08;8.00;;;0.75;;
70369;SDS011;57790;51.356;-2.906;2023-02-05T04:51:09;9.43;;;0.90;;
70369;SDS011;57790;51.356;-2.906;2023-02-05T04:54:11;5.93;;;0.60;;
70369;SDS011;57790;51.356;-2.906;2023-02-05T04:57:12;8.80;;;0.93;;
70369;SDS011;57790;51.356;-2.906;2023-02-05T05:00:12;6.97;;;0.70;;
70369;SDS011;57790;51.356;-2.906;2023-02-05T05:03:13;10.63;;;0.88;;
70369;SDS011;57790;51.356;-2.906;2023-02-05T05:06:14;5.17;;;0.77;;
70369;SDS011;57790;51.356;-2.906;2023-02-05T05:09:16;8.57;;;0.98;;
70369;SDS011;57790;51.356;-2.906;2023-02-05T05:12:16;7.47;;;0.70;;
70369;SDS011;57790;51.356;-2.906;2023-02-05T05:15:16;7.00;;;0.70;;
70369;SDS011;57790;51.356;-2.906;2023-02-05T05:18:17;5.37;;;0.53;;
70369;SDS011;57790;51.356;-2.906;2023-02-05T05:21:17;4.97;;;0.50;;
70369;SDS011;57790;51.356;-2.906;2023-02-05T05:24:18;6.00;;;0.60;;
70369;SDS011;57790;51.356;-2.906;2023-02-05T05:27:18;7.88;;;1.02;;
70369;SDS011;57790;51.356;-2.906;2023-02-05T05:30:19;9.50;;;0.87;;
70369;SDS011;57790;51.356;-2.906;2023-02-05T05:33:19;5.23;;;0.70;;
70369;SDS011;57790;51.356;-2.906;2023-02-05T05:36:20;4.03;;;0.80;;
70369;SDS011;57790;51.356;-2.906;2023-02-05T05:39:20;4.93;;;0.60;;
70369;SDS011;57790;51.356;-2.906;2023-02-05T05:42:40;7.30;;;0.83;;
70369;SDS011;57790;51.356;-2.906;2023-02-05T05:45:59;8.38;;;0.90;;
70369;SDS011;57790;51.356;-2.906;2023-02-05T05:49:00;7.05;;;0.65;;
70369;SDS011;57790;51.356;-2.906;2023-02-05T05:52:01;3.33;;;0.50;;
70369;SDS011;57790;51.356;-2.906;2023-02-05T05:55:02;6.35;;;0.82;;
70369;SDS011;57790;51.356;-2.906;2023-02-05T05:58:02;10.83;;;0.90;;
70369;SDS011;57790;51.356;-2.906;2023-02-05T06:01:03;7.47;;;0.77;;
70369;SDS011;57790;51.356;-2.906;2023-02-05T06:04:05;4.68;;;0.80;;
70369;SDS011;57790;51.356;-2.906;2023-02-05T06:07:05;5.20;;;0.93;;
70369;SDS011;57790;51.356;-2.906;2023-02-05T06:10:06;5.78;;;0.60;;
70369;SDS011;57790;51.356;-2.906;2023-02-05T06:13:07;7.87;;;0.73;;
70369;SDS011;57790;51.356;-2.906;2023-02-05T06:16:07;6.45;;;0.82;;
70369;SDS011;57790;51.356;-2.906;2023-02-05T06:19:08;4.87;;;0.60;;
70369;SDS011;57790;51.356;-2.906;2023-02-05T06:22:08;5.27;;;0.70;;
70369;SDS011;57790;51.356;-2.906;2023-02-05T06:25:09;6.43;;;0.73;;
70369;SDS011;57790;51.356;-2.906;2023-02-05T06:28:09;7.30;;;0.75;;
70369;SDS011;57790;51.356;-2.906;2023-02-05T06:31:10;7.67;;;0.90;;
70369;SDS011;57790;51.356;-2.906;2023-02-05T06:34:11;7.68;;;1.10;;
70369;SDS011;57790;51.356;-2.906;2023-02-05T06:37:11;6.17;;;0.83;;
70369;SDS011;57790;51.356;-2.906;2023-02-05T06:40:12;4.70;;;0.57;;
70369;SDS011;57790;51.356;-2.906;2023-02-05T06:43:14;5.80;;;0.60;;
70369;SDS011;57790;51.356;-2.906;2023-02-05T06:46:15;6.13;;;0.52;;
70369;SDS011;57790;51.356;-2.906;2023-02-05T06:49:15;5.57;;;0.80;;
70369;SDS011;57790;51.356;-2.906;2023-02-05T06:52:15;5.17;;;0.70;;
70369;SDS011;57790;51.356;-2.906;2023-02-05T06:55:16;5.03;;;0.70;;
70369;SDS011;57790;51.356;-2.906;2023-02-05T06:58:17;4.80;;;0.55;;
70369;SDS011;57790;51.356;-2.906;2023-02-05T07:01:17;5.23;;;0.73;;
70369;SDS011;57790;51.356;-2.906;2023-02-05T07:04:18;5.07;;;0.50;;
70369;SDS011;57790;51.356;-2.906;2023-02-05T07:07:18;4.85;;;0.50;;
70369;SDS011;57790;51.356;-2.906;2023-02-05T07:10:19;3.90;;;0.50;;
70369;SDS011;57790;51.356;-2.906;2023-02-05T07:13:19;8.00;;;1.10;;
70369;SDS011;57790;51.356;-2.906;2023-02-05T07:16:20;6.40;;;0.70;;
70369;SDS011;57790;51.356;-2.906;2023-02-05T07:19:20;5.23;;;0.53;;
70369;SDS011;57790;51.356;-2.906;2023-02-05T07:22:21;5.35;;;0.70;;
70369;SDS011;57790;51.356;-2.906;2023-02-05T07:25:21;3.47;;;0.43;;
70369;SDS011;57790;51.356;-2.906;2023-02-05T07:28:22;6.47;;;0.70;;
70369;SDS011;57790;51.356;-2.906;2023-02-05T07:31:22;3.53;;;0.50;;
70369;SDS011;57790;51.356;-2.906;2023-02-05T07:34:23;7.72;;;0.57;;
70369;SDS011;57790;51.356;-2.906;2023-02-05T07:37:23;5.00;;;1.07;;
70369;SDS011;57790;51.356;-2.906;2023-02-05T07:40:23;3.67;;;0.70;;
70369;SDS011;57790;51.356;-2.906;2023-02-05T07:43:24;4.30;;;0.50;;
70369;SDS011;57790;51.356;-2.906;2023-02-05T07:46:24;6.07;;;0.70;;
70369;SDS011;57790;51.356;-2.906;2023-02-05T07:49:25;5.43;;;0.70;;
70369;SDS011;57790;51.356;-2.906;2023-02-05T07:52:25;6.00;;;0.83;;
70369;SDS011;57790;51.356;-2.906;2023-02-05T07:55:26;3.87;;;0.40;;
70369;SDS011;57790;51.356;-2.906;2023-02-05T07:58:26;5.53;;;0.57;;
70369;SDS011;57790;51.356;-2.906;2023-02-05T08:01:26;6.60;;;0.83;;
70369;SDS011;57790;51.356;-2.906;2023-02-05T08:04:27;7.83;;;0.90;;
70369;SDS011;57790;51.356;-2.906;2023-02-05T08:07:27;4.53;;;0.60;;
70369;SDS011;57790;51.356;-2.906;2023-02-05T08:10:28;5.90;;;0.97;;
70369;SDS011;57790;51.356;-2.906;2023-02-05T08:13:28;4.00;;;0.60;;
70369;SDS011;57790;51.356;-2.906;2023-02-05T08:16:32;7.57;;;0.80;;
70369;SDS011;57790;51.356;-2.906;2023-02-05T08:19:32;6.80;;;0.80;;
70369;SDS011;57790;51.356;-2.906;2023-02-05T08:22:33;5.30;;;0.77;;
70369;SDS011;57790;51.356;-2.906;2023-02-05T08:25:36;6.25;;;0.50;;
70369;SDS011;57790;51.356;-2.906;2023-02-05T08:28:37;6.32;;;0.70;;
70369;SDS011;57790;51.356;-2.906;2023-02-05T08:31:38;6.57;;;0.57;;
70369;SDS011;57790;51.356;-2.906;2023-02-05T08:34:38;7.80;;;0.70;;
70369;SDS011;57790;51.356;-2.906;2023-02-05T08:37:39;10.65;;;0.82;;
70369;SDS011;57790;51.356;-2.906;2023-02-05T08:40:39;7.93;;;0.60;;
70369;SDS011;57790;51.356;-2.906;2023-02-05T08:43:40;11.03;;;0.90;;
70369;SDS011;57790;51.356;-2.906;2023-02-05T08:46:42;10.80;;;1.00;;
70369;SDS011;57790;51.356;-2.906;2023-02-05T08:49:42;12.47;;;1.00;;
70369;SDS011;57790;51.356;-2.906;2023-02-05T08:52:43;10.00;;;0.82;;
70369;SDS011;57790;51.356;-2.906;2023-02-05T08:55:44;9.03;;;0.93;;
70369;SDS011;57790;51.356;-2.906;2023-02-05T08:58:45;9.07;;;1.00;;
70369;SDS011;57790;51.356;-2.906;2023-02-05T09:01:45;8.37;;;0.80;;
70369;SDS011;57790;51.356;-2.906;2023-02-05T09:04:46;7.05;;;0.95;;
70369;SDS011;57790;51.356;-2.906;2023-02-05T09:07:47;8.40;;;0.80;;
70369;SDS011;57790;51.356;-2.906;2023-02-05T09:10:48;8.23;;;0.90;;
70369;SDS011;57790;51.356;-2.906;2023-02-05T09:13:48;9.57;;;0.80;;
70369;SDS011;57790;51.356;-2.906;2023-02-05T09:16:49;8.13;;;0.90;;
70369;SDS011;57790;51.356;-2.906;2023-02-05T09:19:49;9.83;;;0.80;;
70369;SDS011;57790;51.356;-2.906;2023-02-05T09:22:50;10.53;;;0.80;;
70369;SDS011;57790;51.356;-2.906;2023-02-05T09:25:52;5.73;;;1.10;;
70369;SDS011;57790;51.356;-2.906;2023-02-05T09:28:53;9.27;;;1.03;;
70369;SDS011;57790;51.356;-2.906;2023-02-05T09:31:54;6.80;;;0.80;;
70369;SDS011;57790;51.356;-2.906;2023-02-05T09:34:54;10.03;;;0.90;;
70369;SDS011;57790;51.356;-2.906;2023-02-05T09:37:54;8.27;;;1.10;;
70369;SDS011;57790;51.356;-2.906;2023-02-05T09:44:02;6.95;;;1.00;;
70369;SDS011;57790;51.356;-2.906;2023-02-05T09:47:19;7.15;;;1.10;;
70369;SDS011;57790;51.356;-2.906;2023-02-05T09:50:26;7.53;;;0.85;;
70369;SDS011;57790;51.356;-2.906;2023-02-05T09:53:32;5.60;;;0.93;;
70369;SDS011;57790;51.356;-2.906;2023-02-05T09:56:35;6.23;;;0.73;;
70369;SDS011;57790;51.356;-2.906;2023-02-05T09:59:37;9.98;;;1.02;;
70369;SDS011;57790;51.356;-2.906;2023-02-05T10:02:49;13.93;;;1.90;;
70369;SDS011;57790;51.356;-2.906;2023-02-05T10:13:35;9.93;;;0.90;;
70369;SDS011;57790;51.356;-2.906;2023-02-05T10:27:09;12.15;;;1.23;;
70369;SDS011;57790;51.356;-2.906;2023-02-05T10:30:35;10.83;;;1.10;;
70369;SDS011;57790;51.356;-2.906;2023-02-05T10:33:50;12.93;;;1.20;;
70369;SDS011;57790;51.356;-2.906;2023-02-05T10:36:55;7.22;;;0.77;;
70369;SDS011;57790;51.356;-2.906;2023-02-05T10:39:55;10.57;;;1.37;;
70369;SDS011;57790;51.356;-2.906;2023-02-05T10:43:01;10.07;;;1.40;;
70369;SDS011;57790;51.356;-2.906;2023-02-05T10:46:28;8.77;;;1.00;;
70369;SDS011;57790;51.356;-2.906;2023-02-05T10:52:32;10.07;;;1.40;;
70369;SDS011;57790;51.356;-2.906;2023-02-05T10:55:34;10.60;;;1.30;;
70369;SDS011;57790;51.356;-2.906;2023-02-05T11:01:48;10.18;;;1.55;;
70369;SDS011;57790;51.356;-2.906;2023-02-05T11:05:05;15.15;;;1.48;;
70369;SDS011;57790;51.356;-2.906;2023-02-05T11:11:33;7.97;;;1.40;;
70369;SDS011;57790;51.356;-2.906;2023-02-05T11:14:35;10.73;;;1.37;;
70369;SDS011;57790;51.356;-2.906;2023-02-05T11:17:37;7.40;;;1.33;;
70369;SDS011;57790;51.356;-2.906;2023-02-05T11:20:39;11.23;;;1.20;;
70369;SDS011;57790;51.356;-2.906;2023-02-05T11:23:39;8.38;;;1.30;;
70369;SDS011;57790;51.356;-2.906;2023-02-05T11:27:18;9.75;;;1.10;;
70369;SDS011;57790;51.356;-2.906;2023-02-05T11:30:30;11.73;;;1.45;;
70369;SDS011;57790;51.356;-2.906;2023-02-05T11:33:34;9.53;;;1.43;;
70369;SDS011;57790;51.356;-2.906;2023-02-05T11:36:35;7.53;;;1.03;;
70369;SDS011;57790;51.356;-2.906;2023-02-05T11:39:38;7.73;;;1.00;;
70369;SDS011;57790;51.356;-2.906;2023-02-05T11:42:39;7.65;;;1.20;;
70369;SDS011;57790;51.356;-2.906;2023-02-05T11:45:40;10.77;;;1.97;;
70369;SDS011;57790;51.356;-2.906;2023-02-05T11:51:56;5.25;;;0.88;;
70369;SDS011;57790;51.356;-2.906;2023-02-05T11:54:57;6.80;;;1.05;;
70369;SDS011;57790;51.356;-2.906;2023-02-05T11:58:00;11.40;;;1.17;;
70369;SDS011;57790;51.356;-2.906;2023-02-05T12:01:03;9.83;;;1.10;;
70369;SDS011;57790;51.356;-2.906;2023-02-05T12:04:19;7.72;;;0.82;;
70369;SDS011;57790;51.356;-2.906;2023-02-05T12:07:20;9.18;;;1.15;;
70369;SDS011;57790;51.356;-2.906;2023-02-05T12:16:47;6.97;;;0.90;;
70369;SDS011;57790;51.356;-2.906;2023-02-05T12:26:57;8.73;;;1.10;;
70369;SDS011;57790;51.356;-2.906;2023-02-05T12:43:23;5.53;;;0.90;;
70369;SDS011;57790;51.356;-2.906;2023-02-05T12:56:57;10.60;;;1.30;;
70369;SDS011;57790;51.356;-2.906;2023-02-05T13:00:04;5.63;;;0.90;;
70369;SDS011;57790;51.356;-2.906;2023-02-05T13:06:41;8.80;;;1.00;;
70369;SDS011;57790;51.356;-2.906;2023-02-05T13:09:47;5.72;;;0.98;;
70369;SDS011;57790;51.356;-2.906;2023-02-05T13:13:13;7.25;;;1.27;;
70369;SDS011;57790;51.356;-2.906;2023-02-05T13:16:18;7.03;;;1.05;;
70369;SDS011;57790;51.356;-2.906;2023-02-05T13:19:29;4.13;;;0.80;;
70369;SDS011;57790;51.356;-2.906;2023-02-05T13:22:45;7.57;;;1.00;;
70369;SDS011;57790;51.356;-2.906;2023-02-05T13:26:10;6.75;;;0.90;;
70369;SDS011;57790;51.356;-2.906;2023-02-05T13:29:34;6.05;;;0.80;;
70369;SDS011;57790;51.356;-2.906;2023-02-05T13:32:46;6.57;;;1.00;;
70369;SDS011;57790;51.356;-2.906;2023-02-05T13:35:55;5.63;;;0.80;;
70369;SDS011;57790;51.356;-2.906;2023-02-05T14:00:01;5.50;;;0.90;;
70369;SDS011;57790;51.356;-2.906;2023-02-05T14:03:04;5.80;;;0.90;;
70369;SDS011;57790;51.356;-2.906;2023-02-05T14:09:22;3.58;;;0.93;;
70369;SDS011;57790;51.356;-2.906;2023-02-05T14:12:32;5.97;;;0.95;;
70369;SDS011;57790;51.356;-2.906;2023-02-05T14:15:38;4.63;;;0.80;;
70369;SDS011;57790;51.356;-2.906;2023-02-05T14:21:47;6.68;;;1.17;;
70369;SDS011;57790;51.356;-2.906;2023-02-05T14:24:49;6.07;;;1.33;;
70369;SDS011;57790;51.356;-2.906;2023-02-05T14:27:50;5.83;;;1.10;;
70369;SDS011;57790;51.356;-2.906;2023-02-05T14:30:51;8.75;;;1.20;;
70369;SDS011;57790;51.356;-2.906;2023-02-05T14:34:42;5.43;;;1.40;;
70369;SDS011;57790;51.356;-2.906;2023-02-05T14:40:35;3.93;;;0.87;;
70369;SDS011;57790;51.356;-2.906;2023-02-05T14:43:37;7.47;;;1.20;;
70369;SDS011;57790;51.356;-2.906;2023-02-05T14:46:40;8.18;;;1.48;;
70369;SDS011;57790;51.356;-2.906;2023-02-05T14:49:45;10.40;;;1.40;;
70369;SDS011;57790;51.356;-2.906;2023-02-05T14:52:51;9.40;;;1.27;;
70369;SDS011;57790;51.356;-2.906;2023-02-05T14:55:57;8.73;;;1.50;;
70369;SDS011;57790;51.356;-2.906;2023-02-05T14:59:01;7.03;;;1.10;;
70369;SDS011;57790;51.356;-2.906;2023-02-05T15:02:44;9.25;;;1.40;;
70369;SDS011;57790;51.356;-2.906;2023-02-05T15:08:50;8.77;;;1.10;;
70369;SDS011;57790;51.356;-2.906;2023-02-05T15:18:27;11.98;;;1.33;;
70369;SDS011;57790;51.356;-2.906;2023-02-05T15:22:05;8.40;;;1.20;;
70369;SDS011;57790;51.356;-2.906;2023-02-05T15:25:00;9.00;;;1.30;;
70369;SDS011;57790;51.356;-2.906;2023-02-05T15:28:38;8.60;;;1.23;;
70369;SDS011;57790;51.356;-2.906;2023-02-05T15:31:56;8.15;;;1.30;;
70369;SDS011;57790;51.356;-2.906;2023-02-05T15:35:01;7.43;;;1.55;;
70369;SDS011;57790;51.356;-2.906;2023-02-05T15:41:20;6.88;;;1.23;;
70369;SDS011;57790;51.356;-2.906;2023-02-05T15:44:27;9.85;;;1.50;;
70369;SDS011;57790;51.356;-2.906;2023-02-05T15:47:29;7.78;;;1.17;;
70369;SDS011;57790;51.356;-2.906;2023-02-05T15:50:29;7.70;;;1.30;;
70369;SDS011;57790;51.356;-2.906;2023-02-05T15:53:42;8.43;;;1.35;;
70369;SDS011;57790;51.356;-2.906;2023-02-05T15:56:46;6.82;;;1.10;;
70369;SDS011;57790;51.356;-2.906;2023-02-05T15:59:50;6.97;;;1.27;;
70369;SDS011;57790;51.356;-2.906;2023-02-05T16:02:56;9.57;;;1.80;;
70369;SDS011;57790;51.356;-2.906;2023-02-05T16:05:58;8.73;;;1.50;;
70369;SDS011;57790;51.356;-2.906;2023-02-05T16:08:59;7.25;;;1.23;;
70369;SDS011;57790;51.356;-2.906;2023-02-05T16:12:09;9.47;;;1.30;;
70369;SDS011;57790;51.356;-2.906;2023-02-05T16:15:12;7.72;;;1.20;;
70369;SDS011;57790;51.356;-2.906;2023-02-05T16:18:58;6.45;;;1.15;;
70369;SDS011;57790;51.356;-2.906;2023-02-05T16:21:38;9.07;;;1.20;;
70369;SDS011;57790;51.356;-2.906;2023-02-05T16:24:44;7.10;;;1.50;;
70369;SDS011;57790;51.356;-2.906;2023-02-05T16:27:48;12.25;;;1.80;;
70369;SDS011;57790;51.356;-2.906;2023-02-05T16:30:51;11.00;;;1.38;;
70369;SDS011;57790;51.356;-2.906;2023-02-05T16:33:59;6.97;;;1.50;;
70369;SDS011;57790;51.356;-2.906;2023-02-05T16:37:03;8.17;;;1.63;;
70369;SDS011;57790;51.356;-2.906;2023-02-05T16:40:05;10.40;;;1.95;;
70369;SDS011;57790;51.356;-2.906;2023-02-05T16:43:19;9.35;;;1.58;;
70369;SDS011;57790;51.356;-2.906;2023-02-05T16:46:39;8.88;;;1.80;;
70369;SDS011;57790;51.356;-2.906;2023-02-05T16:49:39;9.23;;;1.80;;
70369;SDS011;57790;51.356;-2.906;2023-02-05T16:52:40;10.10;;;1.83;;
70369;SDS011;57790;51.356;-2.906;2023-02-05T16:55:41;9.20;;;1.83;;
70369;SDS011;57790;51.356;-2.906;2023-02-05T16:58:43;12.30;;;2.22;;
70369;SDS011;57790;51.356;-2.906;2023-02-05T17:01:47;9.93;;;2.17;;
70369;SDS011;57790;51.356;-2.906;2023-02-05T17:04:48;8.13;;;1.73;;
70369;SDS011;57790;51.356;-2.906;2023-02-05T17:07:52;9.95;;;2.08;;
70369;SDS011;57790;51.356;-2.906;2023-02-05T17:10:56;12.15;;;2.30;;
70369;SDS011;57790;51.356;-2.906;2023-02-05T17:17:14;9.40;;;2.00;;
70369;SDS011;57790;51.356;-2.906;2023-02-05T17:23:19;9.05;;;2.42;;
70369;SDS011;57790;51.356;-2.906;2023-02-05T17:26:19;12.70;;;3.07;;
70369;SDS011;57790;51.356;-2.906;2023-02-05T17:29:20;10.48;;;2.50;;
70369;SDS011;57790;51.356;-2.906;2023-02-05T17:32:20;9.20;;;2.07;;
70369;SDS011;57790;51.356;-2.906;2023-02-05T17:35:21;11.10;;;2.43;;
70369;SDS011;57790;51.356;-2.906;2023-02-05T17:38:24;8.93;;;2.20;;
70369;SDS011;57790;51.356;-2.906;2023-02-05T17:41:29;8.75;;;2.17;;
70369;SDS011;57790;51.356;-2.906;2023-02-05T17:44:53;10.33;;;2.03;;
70369;SDS011;57790;51.356;-2.906;2023-02-05T17:47:53;10.57;;;2.20;;
70369;SDS011;57790;51.356;-2.906;2023-02-05T17:50:54;7.70;;;1.87;;
70369;SDS011;57790;51.356;-2.906;2023-02-05T17:53:58;9.20;;;2.05;;
70369;SDS011;57790;51.356;-2.906;2023-02-05T17:57:02;7.97;;;1.73;;
70369;SDS011;57790;51.356;-2.906;2023-02-05T18:00:25;7.10;;;1.95;;
70369;SDS011;57790;51.356;-2.906;2023-02-05T18:03:27;11.35;;;2.10;;
70369;SDS011;57790;51.356;-2.906;2023-02-05T18:06:27;11.60;;;2.47;;
70369;SDS011;57790;51.356;-2.906;2023-02-05T18:09:28;10.53;;;2.03;;
70369;SDS011;57790;51.356;-2.906;2023-02-05T18:12:28;11.27;;;2.50;;
70369;SDS011;57790;51.356;-2.906;2023-02-05T18:15:29;11.05;;;2.00;;
70369;SDS011;57790;51.356;-2.906;2023-02-05T18:18:31;10.13;;;2.10;;
70369;SDS011;57790;51.356;-2.906;2023-02-05T18:21:33;9.48;;;2.45;;
70369;SDS011;57790;51.356;-2.906;2023-02-05T18:24:34;9.35;;;2.60;;
70369;SDS011;57790;51.356;-2.906;2023-02-05T18:27:36;11.73;;;2.72;;
70369;SDS011;57790;51.356;-2.906;2023-02-05T18:30:36;9.77;;;2.67;;
70369;SDS011;57790;51.356;-2.906;2023-02-05T18:33:38;12.05;;;3.33;;
70369;SDS011;57790;51.356;-2.906;2023-02-05T18:36:38;12.17;;;2.67;;
70369;SDS011;57790;51.356;-2.906;2023-02-05T18:39:39;9.40;;;2.38;;
70369;SDS011;57790;51.356;-2.906;2023-02-05T18:42:40;11.90;;;3.50;;
70369;SDS011;57790;51.356;-2.906;2023-02-05T18:45:40;13.05;;;2.70;;
70369;SDS011;57790;51.356;-2.906;2023-02-05T18:48:41;11.07;;;2.50;;
70369;SDS011;57790;51.356;-2.906;2023-02-05T18:51:44;9.57;;;2.07;;
70369;SDS011;57790;51.356;-2.906;2023-02-05T18:54:45;11.97;;;2.67;;
70369;SDS011;57790;51.356;-2.906;2023-02-05T18:57:46;11.53;;;2.43;;
70369;SDS011;57790;51.356;-2.906;2023-02-05T19:00:46;11.65;;;3.13;;
70369;SDS011;57790;51.356;-2.906;2023-02-05T19:03:47;14.10;;;3.23;;
70369;SDS011;57790;51.356;-2.906;2023-02-05T19:06:48;10.90;;;3.05;;
70369;SDS011;57790;51.356;-2.906;2023-02-05T19:09:52;12.07;;;3.33;;
70369;SDS011;57790;51.356;-2.906;2023-02-05T19:12:54;13.10;;;4.03;;
70369;SDS011;57790;51.356;-2.906;2023-02-05T19:15:55;11.97;;;3.50;;
70369;SDS011;57790;51.356;-2.906;2023-02-05T19:18:56;11.43;;;3.78;;
70369;SDS011;57790;51.356;-2.906;2023-02-05T19:21:57;12.00;;;3.72;;
70369;SDS011;57790;51.356;-2.906;2023-02-05T19:25:04;14.93;;;4.00;;
70369;SDS011;57790;51.356;-2.906;2023-02-05T19:28:04;14.57;;;4.47;;
70369;SDS011;57790;51.356;-2.906;2023-02-05T19:31:06;11.23;;;3.70;;
70369;SDS011;57790;51.356;-2.906;2023-02-05T19:34:09;13.40;;;4.03;;
70369;SDS011;57790;51.356;-2.906;2023-02-05T19:37:10;16.55;;;4.35;;
70369;SDS011;57790;51.356;-2.906;2023-02-05T19:40:10;13.07;;;4.43;;
70369;SDS011;57790;51.356;-2.906;2023-02-05T19:43:12;13.25;;;4.18;;
70369;SDS011;57790;51.356;-2.906;2023-02-05T19:46:17;14.50;;;4.30;;
70369;SDS011;57790;51.356;-2.906;2023-02-05T19:49:20;12.47;;;4.17;;
70369;SDS011;57790;51.356;-2.906;2023-02-05T19:52:20;15.35;;;4.93;;
70369;SDS011;57790;51.356;-2.906;2023-02-05T19:55:21;13.07;;;4.37;;
70369;SDS011;57790;51.356;-2.906;2023-02-05T19:58:21;13.80;;;4.45;;
70369;SDS011;57790;51.356;-2.906;2023-02-05T20:01:26;16.27;;;4.73;;
70369;SDS011;57790;51.356;-2.906;2023-02-05T20:04:28;13.13;;;4.37;;
70369;SDS011;57790;51.356;-2.906;2023-02-05T20:07:29;12.13;;;4.70;;
70369;SDS011;57790;51.356;-2.906;2023-02-05T20:10:32;13.23;;;4.35;;
70369;SDS011;57790;51.356;-2.906;2023-02-05T20:13:33;15.20;;;4.37;;
70369;SDS011;57790;51.356;-2.906;2023-02-05T20:16:35;15.88;;;4.80;;
70369;SDS011;57790;51.356;-2.906;2023-02-05T20:19:36;12.70;;;4.15;;
70369;SDS011;57790;51.356;-2.906;2023-02-05T20:22:36;12.47;;;4.30;;
70369;SDS011;57790;51.356;-2.906;2023-02-05T20:25:37;13.70;;;3.70;;
70369;SDS011;57790;51.356;-2.906;2023-02-05T20:28:38;12.68;;;4.10;;
70369;SDS011;57790;51.356;-2.906;2023-02-05T20:31:59;11.00;;;4.13;;
70369;SDS011;57790;51.356;-2.906;2023-02-05T20:35:00;11.80;;;4.23;;